Seaforth, Minnesota
Current Conditions -  °F | °C
As of 2:53 AM on Wednesday 28 Jan 2015 (Local Time) from KRWF Reporting Station
Overcast Overcast  
Wind Chill: 22°   Ceiling: 700
Heat Index: 33°   Visibility: 7mi
Dew Point: 30°   Wind: 20mph
Humidity: 89%   Direction: 140°SE
Pressure: 29.98"   Gusts: NA
Location:  44.48°N, 95.33°W
Report Text: KRWF 280853Z AUTO 14017KT 7SM OVC007 01/M01 A2998 RMK AO2 SLP162 T00061011 58011
Loading
Personal Weather Stations






























Interactive Weather Map New forecast layout! Learn more

10-Day Weather Forecast

Advertisements
Track Severe Weather on mobile